createdAt,value
2023-03-29T00:02:03.154Z,2.05
2023-03-29T00:04:30.352Z,3.45
2023-03-29T00:06:57.808Z,2.85
2023-03-29T00:09:26.731Z,2.05
2023-03-29T00:14:21.097Z,2.13
2023-03-29T00:16:48.892Z,2.88
2023-03-29T00:19:16.193Z,1.80
2023-03-29T00:21:43.340Z,2.85
2023-03-29T00:24:10.479Z,3.67
2023-03-29T00:26:37.709Z,1.75
2023-03-29T00:29:04.886Z,2.63
2023-03-29T00:31:32.280Z,2.70
2023-03-29T00:33:59.434Z,3.88
2023-03-29T00:36:26.607Z,2.80
2023-03-29T00:38:53.732Z,1.92
2023-03-29T00:41:21.568Z,1.98
2023-03-29T00:44:06.867Z,2.55
2023-03-29T00:46:35.050Z,3.10
2023-03-29T00:49:08.086Z,1.77
2023-03-29T00:51:37.355Z,2.25
2023-03-29T00:54:07.170Z,2.35
2023-03-29T00:56:37.506Z,3.00
2023-03-29T00:59:10.844Z,3.22
2023-03-29T01:01:48.192Z,2.42
2023-03-29T01:04:19.381Z,3.53
2023-03-29T01:07:07.047Z,2.50
2023-03-29T01:09:35.959Z,2.15
2023-03-29T01:12:07.061Z,2.63
2023-03-29T01:14:36.650Z,2.95
2023-03-29T01:17:04.611Z,3.05
2023-03-29T01:19:36.223Z,2.35
2023-03-29T01:22:03.816Z,3.15
2023-03-29T01:24:33.692Z,2.08
2023-03-29T01:27:09.500Z,2.47
2023-03-29T01:29:45.586Z,3.25
2023-03-29T01:32:18.021Z,2.65
2023-03-29T01:34:48.259Z,2.38
2023-03-29T01:37:24.574Z,2.38
2023-03-29T01:39:52.454Z,2.28
2023-03-29T01:42:22.365Z,2.80
2023-03-29T01:44:53.464Z,5.80
2023-03-29T01:47:26.150Z,3.00
2023-03-29T01:49:57.305Z,2.25
2023-03-29T01:52:26.683Z,2.17
2023-03-29T01:54:55.778Z,1.63
2023-03-29T01:57:25.148Z,3.35
2023-03-29T01:59:53.526Z,2.38
2023-03-29T02:02:21.558Z,2.42
2023-03-29T02:04:51.779Z,3.35
2023-03-29T02:07:21.724Z,3.00
2023-03-29T02:09:50.193Z,2.22
2023-03-29T02:12:17.648Z,2.30
2023-03-29T02:14:45.079Z,2.53
2023-03-29T02:17:15.350Z,1.48
2023-03-29T02:19:42.503Z,2.17
2023-03-29T02:22:10.366Z,2.40
2023-03-29T02:24:38.105Z,1.30
2023-03-29T02:27:06.148Z,2.30
2023-03-29T02:29:33.526Z,2.10
2023-03-29T02:32:05.117Z,2.22
2023-03-29T02:34:38.885Z,2.58
2023-03-29T02:37:10.349Z,1.98
2023-03-29T02:39:38.340Z,2.53
2023-03-29T02:42:06.989Z,1.38
2023-03-29T02:44:36.595Z,2.10
2023-03-29T02:47:14.613Z,3.17
2023-03-29T02:49:41.765Z,2.45
2023-03-29T02:52:11.091Z,2.88
2023-03-29T02:54:43.056Z,1.92
2023-03-29T02:57:10.751Z,2.33
2023-03-29T02:59:38.649Z,1.65
2023-03-29T03:02:06.152Z,2.40
2023-03-29T03:04:35.535Z,2.92
2023-03-29T03:07:05.117Z,2.70
2023-03-29T03:09:32.203Z,2.22
2023-03-29T03:11:59.336Z,1.80
2023-03-29T03:14:28.189Z,2.30
2023-03-29T03:16:55.350Z,2.38
2023-03-29T03:19:22.484Z,2.95
2023-03-29T03:21:49.620Z,1.92
2023-03-29T03:24:17.754Z,2.00
2023-03-29T03:26:46.357Z,3.55
2023-03-29T03:29:14.144Z,2.30
2023-03-29T03:31:41.414Z,1.80
2023-03-29T03:34:08.618Z,2.70
2023-03-29T03:36:36.041Z,2.45
2023-03-29T03:39:05.796Z,2.00
2023-03-29T03:41:33.162Z,2.30
2023-03-29T03:44:00.874Z,1.63
2023-03-29T03:46:29.686Z,2.15
2023-03-29T03:51:24.864Z,3.72
2023-03-29T03:53:52.147Z,1.98
2023-03-29T03:56:20.468Z,1.80
2023-03-29T03:58:47.702Z,3.00
2023-03-29T04:01:14.903Z,1.58
2023-03-29T04:03:42.187Z,2.15
2023-03-29T04:06:09.838Z,2.10
2023-03-29T04:08:37.135Z,2.10
2023-03-29T04:11:04.638Z,2.25
2023-03-29T04:13:31.955Z,1.90
2023-03-29T04:16:01.411Z,2.47
2023-03-29T04:18:29.061Z,1.92
2023-03-29T04:20:56.217Z,2.50
2023-03-29T04:23:23.325Z,2.17
2023-03-29T04:25:50.401Z,1.75
2023-03-29T04:28:17.568Z,2.83
2023-03-29T04:30:47.361Z,3.25
2023-03-29T04:33:14.520Z,3.00
2023-03-29T04:35:42.459Z,1.95
2023-03-29T04:38:12.361Z,2.67
2023-03-29T04:40:39.563Z,2.50
2023-03-29T04:43:06.705Z,1.88
2023-03-29T04:45:33.898Z,2.53
2023-03-29T04:48:01.192Z,9.07
2023-03-29T04:50:28.600Z,7.05
2023-03-29T04:52:55.801Z,6.07
2023-03-29T04:55:22.982Z,3.88
2023-03-29T04:57:50.226Z,3.65
2023-03-29T05:00:17.640Z,6.07
2023-03-29T05:02:45.858Z,3.97
2023-03-29T05:05:13.954Z,4.78
2023-03-29T05:07:41.226Z,3.47
2023-03-29T05:10:09.275Z,3.05
2023-03-29T05:12:36.752Z,4.55
2023-03-29T05:15:04.814Z,3.15
2023-03-29T05:17:32.057Z,3.30
2023-03-29T05:19:59.240Z,1.63
2023-03-29T05:22:26.397Z,4.95
2023-03-29T05:24:53.998Z,2.38
2023-03-29T05:27:22.968Z,2.95
2023-03-29T05:32:17.304Z,3.38
2023-03-29T05:34:45.203Z,2.97
2023-03-29T05:37:13.373Z,4.38
2023-03-29T05:39:40.579Z,3.25
2023-03-29T05:42:07.836Z,2.83
2023-03-29T05:44:35.169Z,3.10
2023-03-29T05:47:02.397Z,3.00
2023-03-29T05:49:29.490Z,2.67
2023-03-29T05:51:59.781Z,2.92
2023-03-29T05:54:27.246Z,4.13
2023-03-29T05:56:54.410Z,2.00
2023-03-29T05:59:23.618Z,3.95
2023-03-29T06:01:51.981Z,2.20
2023-03-29T06:04:19.367Z,3.35
2023-03-29T06:06:46.787Z,2.50
2023-03-29T06:09:13.936Z,4.03
2023-03-29T06:11:41.317Z,2.88
2023-03-29T06:14:08.518Z,2.45
2023-03-29T06:16:36.426Z,2.75
2023-03-29T06:19:03.760Z,2.80
2023-03-29T06:21:31.610Z,2.90
2023-03-29T06:23:58.769Z,2.53
2023-03-29T06:26:27.808Z,4.25
2023-03-29T06:28:55.000Z,2.58
2023-03-29T06:31:22.250Z,2.90
2023-03-29T06:33:49.541Z,3.38
2023-03-29T06:36:16.956Z,2.40
2023-03-29T06:38:46.055Z,3.92
2023-03-29T06:41:13.621Z,3.40
2023-03-29T06:43:40.808Z,3.90
2023-03-29T06:46:15.035Z,3.78
2023-03-29T06:48:42.277Z,2.70
2023-03-29T06:51:09.370Z,3.92
2023-03-29T06:53:36.741Z,2.35
2023-03-29T06:56:09.184Z,2.60
2023-03-29T06:58:38.254Z,2.83
2023-03-29T07:01:07.145Z,2.50
2023-03-29T07:06:04.474Z,4.40
2023-03-29T07:08:31.846Z,2.25
2023-03-29T07:10:59.604Z,4.18
2023-03-29T07:13:27.661Z,2.53
2023-03-29T07:15:54.871Z,3.78
2023-03-29T07:18:22.128Z,2.58
2023-03-29T07:20:49.335Z,2.72
2023-03-29T07:23:17.457Z,5.10
2023-03-29T07:25:44.860Z,5.38
2023-03-29T07:28:12.025Z,3.30
2023-03-29T07:30:39.259Z,2.75
2023-03-29T07:33:06.479Z,2.13
2023-03-29T07:35:33.820Z,2.55
2023-03-29T07:38:01.139Z,4.30
2023-03-29T07:40:28.359Z,2.63
2023-03-29T07:42:56.753Z,3.80
2023-03-29T07:45:26.860Z,2.88
2023-03-29T07:47:57.187Z,2.75
2023-03-29T07:52:51.557Z,2.65
2023-03-29T07:55:18.776Z,3.53
2023-03-29T07:57:46.325Z,2.03
2023-03-29T08:00:17.507Z,2.80
2023-03-29T08:02:45.648Z,2.75
2023-03-29T08:05:14.258Z,3.50
2023-03-29T08:07:42.417Z,3.00
2023-03-29T08:10:11.006Z,2.53
2023-03-29T08:12:56.764Z,3.28
2023-03-29T08:15:23.953Z,2.10
2023-03-29T08:17:51.113Z,2.72
2023-03-29T08:20:18.365Z,3.08
2023-03-29T08:22:45.705Z,3.10
2023-03-29T08:25:12.936Z,4.03
2023-03-29T08:27:40.140Z,3.35
2023-03-29T08:30:09.464Z,2.47
2023-03-29T08:32:37.504Z,2.13
2023-03-29T08:35:06.726Z,2.50
2023-03-29T08:37:34.103Z,2.35
2023-03-29T08:40:01.548Z,2.45
2023-03-29T08:42:34.583Z,1.95
2023-03-29T08:45:17.306Z,2.63
2023-03-29T08:47:44.501Z,2.90
2023-03-29T08:50:15.791Z,2.50
2023-03-29T08:52:48.544Z,2.90
2023-03-29T08:55:35.966Z,2.40
2023-03-29T09:00:48.540Z,2.50
2023-03-29T09:03:21.310Z,2.03
2023-03-29T09:05:49.849Z,2.58
2023-03-29T09:08:18.215Z,2.42
2023-03-29T09:11:09.754Z,1.92
2023-03-29T09:14:03.391Z,2.05
2023-03-29T09:16:34.371Z,2.85
2023-03-29T09:19:10.215Z,2.28
2023-03-29T09:21:46.785Z,2.42
2023-03-29T09:24:29.557Z,3.35
2023-03-29T09:27:10.112Z,2.28
2023-03-29T09:29:55.598Z,3.13
2023-03-29T09:32:24.084Z,2.53
2023-03-29T09:35:03.681Z,2.20
2023-03-29T09:37:33.385Z,2.42
2023-03-29T09:40:03.841Z,3.28
2023-03-29T09:42:32.350Z,3.58
2023-03-29T09:45:08.522Z,3.00
2023-03-29T09:47:39.829Z,2.58
2023-03-29T09:50:30.954Z,2.72
2023-03-29T09:52:59.092Z,1.90
2023-03-29T09:55:32.307Z,2.88
2023-03-29T09:58:01.586Z,3.40
2023-03-29T10:00:28.832Z,2.72
2023-03-29T10:02:57.813Z,2.65
2023-03-29T10:05:25.964Z,2.58
2023-03-29T10:07:54.362Z,2.67
2023-03-29T10:10:30.678Z,3.28
2023-03-29T10:12:59.871Z,3.70
2023-03-29T10:15:30.883Z,2.25
2023-03-29T10:17:59.029Z,3.58
2023-03-29T10:20:26.285Z,3.05
2023-03-29T10:22:58.300Z,3.10
2023-03-29T10:25:27.594Z,5.30
2023-03-29T10:27:56.107Z,6.47
2023-03-29T10:30:24.442Z,3.85
2023-03-29T10:32:59.773Z,3.72
2023-03-29T10:35:41.659Z,3.22
2023-03-29T10:38:16.557Z,3.65
2023-03-29T10:40:48.226Z,4.03
2023-03-29T10:43:22.540Z,3.33
2023-03-29T10:45:51.200Z,5.82
2023-03-29T10:48:19.432Z,4.32
2023-03-29T10:50:53.267Z,4.57
2023-03-29T10:53:22.718Z,4.68
2023-03-29T10:56:03.436Z,5.18
2023-03-29T10:58:33.454Z,5.15
2023-03-29T11:01:01.961Z,4.80
2023-03-29T11:03:32.595Z,4.70
2023-03-29T11:06:04.183Z,4.75
2023-03-29T11:08:39.006Z,5.07
2023-03-29T11:11:21.824Z,6.60
2023-03-29T11:13:59.763Z,4.32
2023-03-29T11:16:45.518Z,6.68
2023-03-29T11:19:21.808Z,6.05
2023-03-29T11:22:05.258Z,5.65
2023-03-29T11:24:46.903Z,5.72
2023-03-29T11:27:17.132Z,5.88
2023-03-29T11:29:47.456Z,5.60
2023-03-29T11:32:33.572Z,5.53
2023-03-29T11:35:10.031Z,8.00
2023-03-29T11:37:55.988Z,6.40
2023-03-29T11:40:41.996Z,5.20
2023-03-29T11:43:14.038Z,5.03
2023-03-29T11:45:46.968Z,6.32
2023-03-29T11:48:17.755Z,5.25
2023-03-29T11:50:44.974Z,6.30
2023-03-29T11:53:16.104Z,5.50
2023-03-29T11:55:43.616Z,6.13
2023-03-29T11:58:13.844Z,5.97
2023-03-29T12:00:40.964Z,6.38
2023-03-29T12:03:28.667Z,5.70
2023-03-29T12:06:14.868Z,5.93
2023-03-29T12:08:45.712Z,6.90
2023-03-29T12:11:31.543Z,5.75
2023-03-29T12:14:04.908Z,6.90
2023-03-29T12:16:35.120Z,5.95
2023-03-29T12:19:06.008Z,6.90
2023-03-29T12:21:33.961Z,7.00
2023-03-29T12:24:01.195Z,6.25
2023-03-29T12:26:51.789Z,5.25
2023-03-29T12:29:40.215Z,5.90
2023-03-29T12:32:25.824Z,7.10
2023-03-29T12:35:12.022Z,5.80
2023-03-29T12:37:47.115Z,6.15
2023-03-29T12:42:47.361Z,7.15
2023-03-29T12:45:21.430Z,6.53
2023-03-29T12:47:51.511Z,5.50
2023-03-29T12:50:32.440Z,5.53
2023-03-29T12:53:03.472Z,5.40
2023-03-29T12:55:32.841Z,5.32
2023-03-29T12:58:25.544Z,4.65
2023-03-29T13:01:18.744Z,5.55
2023-03-29T13:03:50.101Z,5.30
2023-03-29T13:06:44.569Z,5.35
2023-03-29T13:09:21.540Z,5.55
2023-03-29T13:11:57.069Z,6.70
2023-03-29T13:14:26.458Z,5.18
2023-03-29T13:16:54.335Z,6.03
2023-03-29T13:19:33.428Z,4.53
2023-03-29T13:22:03.517Z,8.13
2023-03-29T13:24:30.806Z,7.78
2023-03-29T13:26:57.948Z,4.38
2023-03-29T13:29:38.017Z,5.30
2023-03-29T13:32:05.406Z,9.20
2023-03-29T13:34:41.009Z,5.03
2023-03-29T13:37:23.668Z,5.38
2023-03-29T13:39:52.926Z,4.78
2023-03-29T13:42:22.203Z,6.80
2023-03-29T13:44:49.439Z,6.80
2023-03-29T13:47:19.450Z,5.88
2023-03-29T13:49:51.772Z,4.88
2023-03-29T13:52:24.987Z,4.90
2023-03-29T13:55:02.278Z,8.63
2023-03-29T13:57:34.463Z,5.13
2023-03-29T14:00:11.772Z,7.15
2023-03-29T14:02:59.120Z,5.60
2023-03-29T14:05:29.532Z,5.65
2023-03-29T14:07:57.725Z,5.25
2023-03-29T14:10:44.511Z,5.93
2023-03-29T14:13:13.667Z,5.47
2023-03-29T14:15:44.033Z,4.22
2023-03-29T14:18:13.873Z,3.97
2023-03-29T14:20:45.019Z,4.43
2023-03-29T14:23:15.636Z,8.60
2023-03-29T14:25:43.282Z,4.85
2023-03-29T14:28:27.036Z,6.28
2023-03-29T14:30:54.667Z,5.07
2023-03-29T14:33:34.455Z,6.22
2023-03-29T14:36:04.229Z,5.75
2023-03-29T14:38:31.982Z,5.75
2023-03-29T14:41:00.182Z,4.20
2023-03-29T14:43:30.416Z,5.45
2023-03-29T14:45:58.491Z,4.72
2023-03-29T14:48:26.410Z,4.47
2023-03-29T14:50:53.730Z,4.70
2023-03-29T14:53:21.913Z,7.78
2023-03-29T14:55:53.610Z,5.88
2023-03-29T14:58:24.771Z,6.05
2023-03-29T15:00:52.828Z,3.97
2023-03-29T15:03:26.204Z,5.03
2023-03-29T15:06:02.330Z,6.38
2023-03-29T15:08:35.873Z,4.93
2023-03-29T15:11:03.479Z,3.92
2023-03-29T15:13:31.312Z,4.72
2023-03-29T15:16:01.689Z,3.88
2023-03-29T15:18:35.175Z,5.05
2023-03-29T15:21:02.737Z,4.70
2023-03-29T15:23:36.026Z,4.82
2023-03-29T15:26:16.554Z,4.03
2023-03-29T15:28:55.432Z,4.95
2023-03-29T15:31:29.031Z,4.10
2023-03-29T15:34:09.235Z,4.60
2023-03-29T15:36:42.102Z,4.05
2023-03-29T15:39:16.290Z,3.70
2023-03-29T15:41:44.614Z,4.32
2023-03-29T15:44:12.797Z,4.10
2023-03-29T15:46:39.988Z,5.35
2023-03-29T15:49:11.181Z,4.45
2023-03-29T15:51:38.419Z,6.05
2023-03-29T15:54:06.372Z,4.60
2023-03-29T15:56:33.750Z,3.17
2023-03-29T15:59:01.664Z,4.00
2023-03-29T16:01:39.645Z,3.45
2023-03-29T16:04:08.154Z,5.15
2023-03-29T16:06:36.231Z,4.18
2023-03-29T16:09:04.369Z,3.60
2023-03-29T16:11:31.511Z,6.90
2023-03-29T16:13:59.093Z,3.72
2023-03-29T16:16:27.127Z,3.75
2023-03-29T16:18:54.333Z,3.42
2023-03-29T16:21:22.785Z,2.90
2023-03-29T16:23:49.914Z,3.60
2023-03-29T16:26:17.670Z,3.60
2023-03-29T16:28:44.811Z,8.95
2023-03-29T16:31:12.556Z,4.75
2023-03-29T16:33:40.775Z,3.40
2023-03-29T16:36:08.507Z,3.75
2023-03-29T16:38:35.692Z,6.43
2023-03-29T16:41:03.088Z,5.25
2023-03-29T16:43:30.569Z,6.25
2023-03-29T16:45:57.801Z,4.95
2023-03-29T16:48:25.059Z,3.88
2023-03-29T16:50:52.285Z,4.18
2023-03-29T16:53:21.434Z,4.53
2023-03-29T16:55:49.089Z,3.88
2023-03-29T16:58:16.342Z,4.15
2023-03-29T17:00:46.402Z,5.28
2023-03-29T17:03:15.304Z,4.45
2023-03-29T17:05:47.458Z,4.88
2023-03-29T17:08:14.737Z,6.82
2023-03-29T17:10:42.343Z,3.58
2023-03-29T17:13:09.803Z,3.25
2023-03-29T17:15:39.554Z,3.65
2023-03-29T17:18:07.696Z,3.40
2023-03-29T17:20:34.908Z,3.90
2023-03-29T17:23:02.102Z,3.00
2023-03-29T17:25:29.237Z,4.88
2023-03-29T17:27:57.178Z,2.85
2023-03-29T17:30:24.295Z,3.80
2023-03-29T17:32:52.352Z,3.72
2023-03-29T17:35:19.578Z,2.90
2023-03-29T17:37:46.706Z,3.33
2023-03-29T17:40:14.192Z,3.55
2023-03-29T17:42:47.794Z,3.17
2023-03-29T17:45:15.630Z,5.65
2023-03-29T17:47:42.953Z,3.13
2023-03-29T17:50:10.866Z,3.55
2023-03-29T17:52:41.372Z,3.85
2023-03-29T17:55:13.597Z,5.68
2023-03-29T17:57:41.514Z,3.78
2023-03-29T18:00:10.646Z,3.63
2023-03-29T18:02:37.905Z,3.45
2023-03-29T18:05:05.674Z,3.72
2023-03-29T18:07:32.899Z,3.30
2023-03-29T18:10:00.114Z,6.25
2023-03-29T18:12:27.900Z,3.63
2023-03-29T18:14:56.876Z,3.50
2023-03-29T18:19:51.599Z,2.97
2023-03-29T18:22:19.685Z,3.03
2023-03-29T18:24:48.202Z,3.63
2023-03-29T18:27:15.992Z,3.70
2023-03-29T18:29:44.628Z,5.55
2023-03-29T18:32:12.212Z,3.88
2023-03-29T18:34:39.527Z,4.25
2023-03-29T18:37:07.490Z,4.95
2023-03-29T18:39:35.818Z,2.65
2023-03-29T18:42:02.937Z,4.85
2023-03-29T18:44:30.145Z,3.22
2023-03-29T18:46:57.508Z,3.40
2023-03-29T18:49:25.762Z,3.40
2023-03-29T18:51:54.306Z,3.58
2023-03-29T18:54:21.696Z,3.60
2023-03-29T18:56:48.868Z,3.78
2023-03-29T18:59:17.165Z,3.65
2023-03-29T19:01:44.529Z,4.07
2023-03-29T19:04:13.346Z,3.22
2023-03-29T19:06:42.007Z,4.55
2023-03-29T19:09:09.874Z,4.07
2023-03-29T19:11:37.031Z,3.33
2023-03-29T19:14:08.233Z,3.65
2023-03-29T19:16:35.916Z,3.97
2023-03-29T19:19:04.911Z,4.28
2023-03-29T19:24:00.988Z,3.42
2023-03-29T19:26:29.434Z,4.75
2023-03-29T19:28:57.056Z,3.20
2023-03-29T19:31:24.340Z,4.00
2023-03-29T19:33:51.536Z,3.35
2023-03-29T19:36:18.741Z,3.40
2023-03-29T19:38:46.004Z,3.67
2023-03-29T19:41:13.343Z,4.20
2023-03-29T19:43:40.536Z,4.03
2023-03-29T19:46:10.502Z,3.80
2023-03-29T19:48:38.758Z,4.80
2023-03-29T19:51:06.692Z,4.10
2023-03-29T19:53:38.248Z,3.80
2023-03-29T19:56:07.684Z,4.82
2023-03-29T20:01:02.296Z,4.03
2023-03-29T20:03:29.884Z,3.75
2023-03-29T20:05:57.384Z,5.95
2023-03-29T20:08:24.965Z,11.15
2023-03-29T20:10:58.801Z,7.55
2023-03-29T20:13:37.451Z,6.15
2023-03-29T20:16:07.087Z,5.68
2023-03-29T20:18:34.290Z,4.57
2023-03-29T20:21:02.130Z,4.03
2023-03-29T20:23:29.982Z,6.22
2023-03-29T20:25:57.194Z,7.47
2023-03-29T20:28:24.901Z,5.32
2023-03-29T20:30:52.500Z,4.57
2023-03-29T20:33:20.232Z,4.32
2023-03-29T20:35:48.050Z,7.00
2023-03-29T20:38:15.914Z,5.28
2023-03-29T20:40:43.047Z,7.05
2023-03-29T20:43:13.289Z,6.40
2023-03-29T20:45:52.577Z,9.10
2023-03-29T20:48:23.092Z,7.40
2023-03-29T20:50:50.795Z,7.22
2023-03-29T20:53:18.372Z,6.50
2023-03-29T20:55:45.679Z,5.82
2023-03-29T20:58:12.922Z,4.82
2023-03-29T21:00:40.396Z,5.60
2023-03-29T21:03:08.614Z,6.38
2023-03-29T21:05:36.220Z,9.48
2023-03-29T21:08:04.233Z,9.50
2023-03-29T21:10:31.658Z,5.20
2023-03-29T21:13:02.644Z,8.55
2023-03-29T21:15:31.205Z,13.70
2023-03-29T21:17:58.753Z,6.65
2023-03-29T21:20:25.994Z,8.23
2023-03-29T21:22:53.115Z,6.72
2023-03-29T21:25:20.316Z,6.35
2023-03-29T21:27:47.484Z,4.57
2023-03-29T21:30:14.907Z,5.68
2023-03-29T21:32:42.102Z,6.55
2023-03-29T21:35:09.678Z,4.63
2023-03-29T21:37:36.840Z,4.38
2023-03-29T21:40:09.162Z,3.85
2023-03-29T21:42:36.328Z,7.28
2023-03-29T21:45:03.946Z,4.35
2023-03-29T21:47:31.435Z,5.80
2023-03-29T21:49:58.683Z,6.55
2023-03-29T21:52:25.965Z,8.82
2023-03-29T21:54:53.103Z,6.55
2023-03-29T21:57:20.394Z,5.47
2023-03-29T21:59:47.775Z,8.68
2023-03-29T22:02:15.279Z,3.97
2023-03-29T22:04:42.450Z,5.88
2023-03-29T22:07:10.627Z,5.80
2023-03-29T22:09:37.877Z,5.25
2023-03-29T22:12:05.116Z,4.18
2023-03-29T22:14:35.207Z,4.03
2023-03-29T22:17:05.664Z,6.78
2023-03-29T22:19:32.764Z,5.70
2023-03-29T22:22:01.317Z,5.25
2023-03-29T22:24:29.085Z,3.78
2023-03-29T22:26:56.287Z,4.20
2023-03-29T22:29:23.488Z,5.15
2023-03-29T22:31:50.828Z,4.35
2023-03-29T22:34:18.040Z,4.10
2023-03-29T22:36:45.369Z,5.10
2023-03-29T22:39:13.442Z,4.15
2023-03-29T22:41:41.141Z,4.07
2023-03-29T22:44:08.308Z,4.68
2023-03-29T22:46:35.674Z,3.60
2023-03-29T22:49:02.919Z,3.50
2023-03-29T22:51:30.057Z,5.30
2023-03-29T22:53:57.240Z,4.80
2023-03-29T22:56:24.830Z,4.50
2023-03-29T22:58:51.961Z,3.95
2023-03-29T23:01:19.285Z,5.72
2023-03-29T23:03:46.405Z,3.95
2023-03-29T23:06:13.746Z,5.25
2023-03-29T23:08:41.059Z,4.85
2023-03-29T23:11:09.582Z,5.32
2023-03-29T23:13:36.769Z,5.68
2023-03-29T23:16:04.948Z,5.70
2023-03-29T23:18:34.532Z,4.53
2023-03-29T23:21:02.551Z,3.75
2023-03-29T23:23:29.945Z,4.65
2023-03-29T23:25:57.252Z,4.03
2023-03-29T23:28:27.899Z,4.35
2023-03-29T23:31:18.134Z,4.53
2023-03-29T23:33:45.486Z,4.35
2023-03-29T23:36:14.558Z,3.42
2023-03-29T23:38:42.485Z,3.30
2023-03-29T23:41:12.658Z,4.28
2023-03-29T23:43:40.958Z,3.83
2023-03-29T23:46:10.583Z,3.53
2023-03-29T23:48:37.971Z,3.85
2023-03-29T23:51:07.777Z,3.95
2023-03-29T23:53:34.896Z,4.22
2023-03-29T23:56:05.004Z,4.35
2023-03-29T23:58:33.448Z,4.55
